sensor_id;sensor_type;location;lat;lon;timestamp;pressure;altitude;pressure_sealevel;temperature;humidity
34931;BME280;21134;49.646;8.560;2022-08-19T00:00:50;100196.19;;;21.90;73.64
34931;BME280;21134;49.646;8.560;2022-08-19T00:03:17;100193.75;;;21.87;73.77
34931;BME280;21134;49.646;8.560;2022-08-19T00:05:43;100188.69;;;21.83;74.04
34931;BME280;21134;49.646;8.560;2022-08-19T00:08:10;100194.84;;;21.82;74.18
34931;BME280;21134;49.646;8.560;2022-08-19T00:10:37;100189.78;;;21.79;73.96
34931;BME280;21134;49.646;8.560;2022-08-19T00:13:05;100186.31;;;21.79;73.95
34931;BME280;21134;49.646;8.560;2022-08-19T00:15:32;100186.47;;;21.76;73.99
34931;BME280;21134;49.646;8.560;2022-08-19T00:17:58;100176.31;;;21.71;74.17
34931;BME280;21134;49.646;8.560;2022-08-19T00:20:25;100174.66;;;21.70;74.49
34931;BME280;21134;49.646;8.560;2022-08-19T00:22:52;100166.00;;;21.70;74.58
34931;BME280;21134;49.646;8.560;2022-08-19T00:25:20;100153.97;;;21.67;74.60
34931;BME280;21134;49.646;8.560;2022-08-19T00:27:46;100150.59;;;21.65;74.81
34931;BME280;21134;49.646;8.560;2022-08-19T00:30:14;100148.75;;;21.67;74.41
34931;BME280;21134;49.646;8.560;2022-08-19T00:32:41;100141.69;;;21.69;74.36
34931;BME280;21134;49.646;8.560;2022-08-19T00:35:08;100136.47;;;21.69;74.22
34931;BME280;21134;49.646;8.560;2022-08-19T00:37:36;100127.94;;;21.67;74.08
34931;BME280;21134;49.646;8.560;2022-08-19T00:40:05;100133.19;;;21.66;74.11
34931;BME280;21134;49.646;8.560;2022-08-19T00:42:32;100127.44;;;21.76;73.21
34931;BME280;21134;49.646;8.560;2022-08-19T00:44:58;100126.84;;;21.71;73.35
34931;BME280;21134;49.646;8.560;2022-08-19T00:47:26;100121.63;;;21.71;72.87
34931;BME280;21134;49.646;8.560;2022-08-19T00:49:56;100121.94;;;21.65;73.37
34931;BME280;21134;49.646;8.560;2022-08-19T00:52:25;100124.72;;;21.62;73.27
34931;BME280;21134;49.646;8.560;2022-08-19T00:54:54;100128.31;;;21.59;73.54
34931;BME280;21134;49.646;8.560;2022-08-19T00:57:25;100128.31;;;21.59;73.16
34931;BME280;21134;49.646;8.560;2022-08-19T00:59:54;100132.84;;;21.56;73.64
34931;BME280;21134;49.646;8.560;2022-08-19T01:02:21;100132.09;;;21.54;73.72
34931;BME280;21134;49.646;8.560;2022-08-19T01:04:49;100135.44;;;21.56;73.48
34931;BME280;21134;49.646;8.560;2022-08-19T01:07:17;100125.03;;;21.56;73.28
34931;BME280;21134;49.646;8.560;2022-08-19T01:09:43;100141.59;;;21.55;73.68
34931;BME280;21134;49.646;8.560;2022-08-19T01:12:10;100143.50;;;21.51;73.64
34931;BME280;21134;49.646;8.560;2022-08-19T01:14:39;100143.66;;;21.48;74.27
34931;BME280;21134;49.646;8.560;2022-08-19T01:17:07;100143.75;;;21.47;74.30
34931;BME280;21134;49.646;8.560;2022-08-19T01:19:37;100137.84;;;21.43;74.55
34931;BME280;21134;49.646;8.560;2022-08-19T01:22:08;100141.28;;;21.44;74.46
34931;BME280;21134;49.646;8.560;2022-08-19T01:24:40;100137.84;;;21.43;74.54
34931;BME280;21134;49.646;8.560;2022-08-19T01:27:07;100128.22;;;21.45;74.39
34931;BME280;21134;49.646;8.560;2022-08-19T01:29:37;100133.47;;;21.44;74.46
34931;BME280;21134;49.646;8.560;2022-08-19T01:32:04;100136.25;;;21.41;74.39
34931;BME280;21134;49.646;8.560;2022-08-19T01:34:31;100145.06;;;21.38;74.83
34931;BME280;21134;49.646;8.560;2022-08-19T01:36:59;100144.97;;;21.40;74.92
34931;BME280;21134;49.646;8.560;2022-08-19T01:39:27;100134.50;;;21.41;74.77
34931;BME280;21134;49.646;8.560;2022-08-19T01:41:55;100143.16;;;21.42;75.01
34931;BME280;21134;49.646;8.560;2022-08-19T01:44:22;100143.16;;;21.42;74.91
34931;BME280;21134;49.646;8.560;2022-08-19T01:46:51;100143.22;;;21.40;74.89
34931;BME280;21134;49.646;8.560;2022-08-19T01:49:20;100148.56;;;21.37;75.05
34931;BME280;21134;49.646;8.560;2022-08-19T01:51:47;100152.09;;;21.36;74.87
34931;BME280;21134;49.646;8.560;2022-08-19T01:54:15;100160.59;;;21.40;75.37
34931;BME280;21134;49.646;8.560;2022-08-19T01:56:42;100154.47;;;21.41;75.36
34931;BME280;21134;49.646;8.560;2022-08-19T01:59:14;100151.03;;;21.40;74.72
34931;BME280;21134;49.646;8.560;2022-08-19T02:01:42;100145.91;;;21.39;75.04
34931;BME280;21134;49.646;8.560;2022-08-19T02:04:09;100146.91;;;21.36;74.87
34931;BME280;21134;49.646;8.560;2022-08-19T02:06:36;100151.31;;;21.34;75.10
34931;BME280;21134;49.646;8.560;2022-08-19T02:09:04;100157.31;;;21.36;75.35
34931;BME280;21134;49.646;8.560;2022-08-19T02:11:33;100152.13;;;21.34;75.90
34931;BME280;21134;49.646;8.560;2022-08-19T02:14:02;100150.44;;;21.35;75.49
34931;BME280;21134;49.646;8.560;2022-08-19T02:16:31;100159.19;;;21.32;75.66
34931;BME280;21134;49.646;8.560;2022-08-19T02:18:58;100155.97;;;21.27;76.11
34931;BME280;21134;49.646;8.560;2022-08-19T02:21:26;100153.63;;;21.23;76.48
34931;BME280;21134;49.646;8.560;2022-08-19T02:23:53;100147.59;;;21.22;76.58
34931;BME280;21134;49.646;8.560;2022-08-19T02:26:20;100143.28;;;21.21;76.40
34931;BME280;21134;49.646;8.560;2022-08-19T02:28:47;100144.22;;;21.20;76.45
34931;BME280;21134;49.646;8.560;2022-08-19T02:31:16;100137.38;;;21.18;76.73
34931;BME280;21134;49.646;8.560;2022-08-19T02:33:45;100139.41;;;21.12;77.34
34931;BME280;21134;49.646;8.560;2022-08-19T02:36:13;100141.06;;;21.13;76.75
34931;BME280;21134;49.646;8.560;2022-08-19T02:38:42;100152.41;;;21.12;76.88
34931;BME280;21134;49.646;8.560;2022-08-19T02:41:12;100160.38;;;21.09;76.60
34931;BME280;21134;49.646;8.560;2022-08-19T02:43:40;100164.56;;;21.12;76.73
34931;BME280;21134;49.646;8.560;2022-08-19T02:46:12;100159.28;;;21.13;76.94
34931;BME280;21134;49.646;8.560;2022-08-19T02:48:39;100157.69;;;21.11;77.17
34931;BME280;21134;49.646;8.560;2022-08-19T02:51:07;100156.91;;;21.09;77.05
34931;BME280;21134;49.646;8.560;2022-08-19T02:53:34;100158.06;;;21.03;77.38
34931;BME280;21134;49.646;8.560;2022-08-19T02:56:00;100153.91;;;20.99;77.25
34931;BME280;21134;49.646;8.560;2022-08-19T02:58:27;100161.72;;;20.99;77.53
34931;BME280;21134;49.646;8.560;2022-08-19T03:00:55;100166.31;;;20.94;77.59
34931;BME280;21134;49.646;8.560;2022-08-19T03:03:22;100161.97;;;20.95;77.55
34931;BME280;21134;49.646;8.560;2022-08-19T03:05:48;100173.50;;;20.89;77.52
34931;BME280;21134;49.646;8.560;2022-08-19T03:08:16;100167.56;;;20.87;77.68
34931;BME280;21134;49.646;8.560;2022-08-19T03:10:45;100167.84;;;20.81;78.06
34931;BME280;21134;49.646;8.560;2022-08-19T03:13:13;100166.13;;;20.80;78.05
34931;BME280;21134;49.646;8.560;2022-08-19T03:15:42;100162.50;;;20.84;78.21
34931;BME280;21134;49.646;8.560;2022-08-19T03:18:09;100155.53;;;20.84;77.95
34931;BME280;21134;49.646;8.560;2022-08-19T03:20:40;100157.50;;;20.79;78.22
34931;BME280;21134;49.646;8.560;2022-08-19T03:23:07;100147.09;;;20.79;78.26
34931;BME280;21134;49.646;8.560;2022-08-19T03:25:38;100139.28;;;20.79;77.97
34931;BME280;21134;49.646;8.560;2022-08-19T03:28:06;100143.75;;;20.77;78.22
34931;BME280;21134;49.646;8.560;2022-08-19T03:30:32;100143.13;;;20.72;78.17
34931;BME280;21134;49.646;8.560;2022-08-19T03:32:59;100142.72;;;20.62;78.82
34931;BME280;21134;49.646;8.560;2022-08-19T03:35:25;100149.88;;;20.57;78.84
34931;BME280;21134;49.646;8.560;2022-08-19T03:37:52;100156.72;;;20.60;77.83
34931;BME280;21134;49.646;8.560;2022-08-19T03:40:19;100163.72;;;20.58;78.03
34931;BME280;21134;49.646;8.560;2022-08-19T03:42:47;100165.44;;;20.59;77.71
34931;BME280;21134;49.646;8.560;2022-08-19T03:45:14;100164.66;;;20.57;77.62
34931;BME280;21134;49.646;8.560;2022-08-19T03:47:41;100158.63;;;20.56;77.81
34931;BME280;21134;49.646;8.560;2022-08-19T03:50:08;100169.06;;;20.55;78.38
34931;BME280;21134;49.646;8.560;2022-08-19T03:52:35;100161.38;;;20.53;78.34
34931;BME280;21134;49.646;8.560;2022-08-19T03:55:02;100164.03;;;20.52;78.24
34931;BME280;21134;49.646;8.560;2022-08-19T03:57:29;100165.00;;;20.49;78.35
34931;BME280;21134;49.646;8.560;2022-08-19T03:59:57;100166.03;;;20.45;78.34
34931;BME280;21134;49.646;8.560;2022-08-19T04:02:23;100175.03;;;20.38;78.79
34931;BME280;21134;49.646;8.560;2022-08-19T04:04:53;100177.09;;;20.31;78.71
34931;BME280;21134;49.646;8.560;2022-08-19T04:07:20;100184.03;;;20.31;78.99
34931;BME280;21134;49.646;8.560;2022-08-19T04:09:47;100185.72;;;20.32;78.92
34931;BME280;21134;49.646;8.560;2022-08-19T04:12:14;100177.91;;;20.32;78.79
34931;BME280;21134;49.646;8.560;2022-08-19T04:14:41;100178.00;;;20.30;78.79
34931;BME280;21134;49.646;8.560;2022-08-19T04:17:09;100172.81;;;20.30;79.19
34931;BME280;21134;49.646;8.560;2022-08-19T04:19:38;100181.72;;;20.25;79.38
34931;BME280;21134;49.646;8.560;2022-08-19T04:22:04;100175.69;;;20.24;79.13
34931;BME280;21134;49.646;8.560;2022-08-19T04:24:32;100183.47;;;20.24;79.29
34931;BME280;21134;49.646;8.560;2022-08-19T04:26:59;100190.34;;;20.25;78.84
34931;BME280;21134;49.646;8.560;2022-08-19T04:29:27;100183.69;;;20.19;79.44
34931;BME280;21134;49.646;8.560;2022-08-19T04:31:55;100188.19;;;20.16;80.01
34931;BME280;21134;49.646;8.560;2022-08-19T04:34:25;100191.03;;;20.10;79.97
34931;BME280;21134;49.646;8.560;2022-08-19T04:36:53;100185.16;;;20.06;80.06
34931;BME280;21134;49.646;8.560;2022-08-19T04:39:23;100184.41;;;20.04;80.50
34931;BME280;21134;49.646;8.560;2022-08-19T04:42:11;100187.97;;;20.02;80.36
34931;BME280;21134;49.646;8.560;2022-08-19T04:45:07;100185.16;;;20.06;80.36
34931;BME280;21134;49.646;8.560;2022-08-19T04:47:35;100191.28;;;20.05;80.48
34931;BME280;21134;49.646;8.560;2022-08-19T04:50:04;100186.28;;;20.01;80.52
34931;BME280;21134;49.646;8.560;2022-08-19T04:52:30;100181.94;;;20.01;80.49
34931;BME280;21134;49.646;8.560;2022-08-19T04:54:57;100169.78;;;20.02;80.23
34931;BME280;21134;49.646;8.560;2022-08-19T04:57:24;100177.63;;;20.00;80.67
34931;BME280;21134;49.646;8.560;2022-08-19T04:59:54;100188.91;;;20.01;80.72
34931;BME280;21134;49.646;8.560;2022-08-19T05:02:20;100181.66;;;20.07;80.74
34931;BME280;21134;49.646;8.560;2022-08-19T05:04:48;100185.72;;;20.13;80.44
34931;BME280;21134;49.646;8.560;2022-08-19T05:07:16;100183.06;;;20.14;80.15
34931;BME280;21134;49.646;8.560;2022-08-19T05:09:42;100193.22;;;20.19;80.27
34931;BME280;21134;49.646;8.560;2022-08-19T05:12:09;100192.94;;;20.25;79.97
34931;BME280;21134;49.646;8.560;2022-08-19T05:14:35;100193.75;;;20.27;80.23
34931;BME280;21134;49.646;8.560;2022-08-19T05:17:02;100185.84;;;20.29;80.17
34931;BME280;21134;49.646;8.560;2022-08-19T05:19:29;100187.47;;;20.31;79.92
34931;BME280;21134;49.646;8.560;2022-08-19T05:22:13;100195.97;;;20.35;79.94
34931;BME280;21134;49.646;8.560;2022-08-19T05:25:02;100202.78;;;20.37;79.87
34931;BME280;21134;49.646;8.560;2022-08-19T05:27:30;100199.25;;;20.38;80.00
34931;BME280;21134;49.646;8.560;2022-08-19T05:29:57;100207.63;;;20.45;80.37
34931;BME280;21134;49.646;8.560;2022-08-19T05:32:24;100205.88;;;20.46;80.24
34931;BME280;21134;49.646;8.560;2022-08-19T05:34:50;100205.75;;;20.49;79.94
34931;BME280;21134;49.646;8.560;2022-08-19T05:37:17;100211.69;;;20.51;80.09
34931;BME280;21134;49.646;8.560;2022-08-19T05:39:43;100203.06;;;20.50;79.80
34931;BME280;21134;49.646;8.560;2022-08-19T05:42:12;100205.41;;;20.56;79.63
34931;BME280;21134;49.646;8.560;2022-08-19T05:44:40;100214.88;;;20.57;79.94
34931;BME280;21134;49.646;8.560;2022-08-19T05:47:08;100215.56;;;20.61;80.02
34931;BME280;21134;49.646;8.560;2022-08-19T05:49:36;100215.97;;;20.71;79.55
34931;BME280;21134;49.646;8.560;2022-08-19T05:52:03;100219.22;;;20.76;79.05
34931;BME280;21134;49.646;8.560;2022-08-19T05:54:31;100218.94;;;20.82;78.79
34931;BME280;21134;49.646;8.560;2022-08-19T05:56:57;100227.28;;;20.88;78.77
34931;BME280;21134;49.646;8.560;2022-08-19T05:59:25;100237.31;;;20.96;78.24
34931;BME280;21134;49.646;8.560;2022-08-19T06:01:52;100240.16;;;21.09;77.01
34931;BME280;21134;49.646;8.560;2022-08-19T06:04:21;100233.66;;;21.18;76.05
34931;BME280;21134;49.646;8.560;2022-08-19T06:06:49;100250.66;;;21.25;75.48
34931;BME280;21134;49.646;8.560;2022-08-19T06:09:17;100257.31;;;21.30;75.08
34931;BME280;21134;49.646;8.560;2022-08-19T06:11:46;100256.22;;;21.36;75.26
34931;BME280;21134;49.646;8.560;2022-08-19T06:14:15;100257.59;;;21.43;74.25
34931;BME280;21134;49.646;8.560;2022-08-19T06:16:45;100265.19;;;21.48;73.50
34931;BME280;21134;49.646;8.560;2022-08-19T06:19:13;100268.09;;;21.59;73.25
34931;BME280;21134;49.646;8.560;2022-08-19T06:21:42;100274.34;;;21.72;72.58
34931;BME280;21134;49.646;8.560;2022-08-19T06:24:11;100276.59;;;21.80;72.51
34931;BME280;21134;49.646;8.560;2022-08-19T06:26:40;100285.66;;;21.89;72.44
34931;BME280;21134;49.646;8.560;2022-08-19T06:29:09;100288.66;;;21.98;71.67
34931;BME280;21134;49.646;8.560;2022-08-19T06:31:36;100273.00;;;21.98;71.99
34931;BME280;21134;49.646;8.560;2022-08-19T06:34:05;100269.09;;;22.07;71.70
34931;BME280;21134;49.646;8.560;2022-08-19T06:36:33;100273.22;;;22.11;71.75
34931;BME280;21134;49.646;8.560;2022-08-19T06:39:02;100286.88;;;22.16;71.30
34931;BME280;21134;49.646;8.560;2022-08-19T06:41:29;100286.66;;;22.21;71.30
34931;BME280;21134;49.646;8.560;2022-08-19T06:43:56;100295.84;;;22.28;71.31
34931;BME280;21134;49.646;8.560;2022-08-19T06:46:23;100301.72;;;22.32;71.16
34931;BME280;21134;49.646;8.560;2022-08-19T06:48:49;100297.28;;;22.34;71.26
34931;BME280;21134;49.646;8.560;2022-08-19T06:51:21;100290.88;;;22.39;71.04
34931;BME280;21134;49.646;8.560;2022-08-19T06:53:54;100298.22;;;22.48;70.64
34931;BME280;21134;49.646;8.560;2022-08-19T06:56:24;100294.28;;;22.57;70.41
34931;BME280;21134;49.646;8.560;2022-08-19T06:58:56;100298.00;;;22.69;69.16
34931;BME280;21134;49.646;8.560;2022-08-19T07:01:24;100302.19;;;22.71;69.66
34931;BME280;21134;49.646;8.560;2022-08-19T07:03:51;100299.84;;;22.67;69.54
34931;BME280;21134;49.646;8.560;2022-08-19T07:06:19;100308.94;;;22.75;69.63
34931;BME280;21134;49.646;8.560;2022-08-19T07:08:46;100309.34;;;22.84;68.38
34931;BME280;21134;49.646;8.560;2022-08-19T07:11:17;100302.13;;;22.89;68.65
34931;BME280;21134;49.646;8.560;2022-08-19T07:13:44;100303.78;;;22.74;69.54
34931;BME280;21134;49.646;8.560;2022-08-19T07:16:15;100303.47;;;22.80;69.38
34931;BME280;21134;49.646;8.560;2022-08-19T07:18:42;100303.47;;;22.80;69.52
34931;BME280;21134;49.646;8.560;2022-08-19T07:21:11;100301.84;;;22.78;69.78
34931;BME280;21134;49.646;8.560;2022-08-19T07:23:40;100294.28;;;22.89;69.53
34931;BME280;21134;49.646;8.560;2022-08-19T07:26:07;100301.19;;;22.90;68.81
34931;BME280;21134;49.646;8.560;2022-08-19T07:28:34;100293.97;;;22.95;69.20
34931;BME280;21134;49.646;8.560;2022-08-19T07:31:05;100299.88;;;22.98;68.66
34931;BME280;21134;49.646;8.560;2022-08-19T07:33:31;100297.41;;;23.11;68.64
34931;BME280;21134;49.646;8.560;2022-08-19T07:36:02;100302.44;;;23.30;68.18
34931;BME280;21134;49.646;8.560;2022-08-19T07:38:29;100304.59;;;23.38;67.23
34931;BME280;21134;49.646;8.560;2022-08-19T07:40:57;100304.06;;;23.47;66.87
34931;BME280;21134;49.646;8.560;2022-08-19T07:43:24;100309.53;;;23.58;66.69
34931;BME280;21134;49.646;8.560;2022-08-19T07:45:52;100304.53;;;23.70;66.18
34931;BME280;21134;49.646;8.560;2022-08-19T07:48:21;100306.31;;;23.69;65.58
34931;BME280;21134;49.646;8.560;2022-08-19T07:50:51;100305.25;;;23.87;64.53
34931;BME280;21134;49.646;8.560;2022-08-19T07:53:18;100296.19;;;24.07;63.68
34931;BME280;21134;49.646;8.560;2022-08-19T07:55:45;100299.56;;;24.09;63.38
34931;BME280;21134;49.646;8.560;2022-08-19T07:58:17;100301.72;;;24.17;63.75
34931;BME280;21134;49.646;8.560;2022-08-19T08:00:46;100298.06;;;24.20;63.50
34931;BME280;21134;49.646;8.560;2022-08-19T08:03:14;100295.19;;;24.10;62.99
34931;BME280;21134;49.646;8.560;2022-08-19T08:05:41;100293.94;;;24.01;63.43
34931;BME280;21134;49.646;8.560;2022-08-19T08:08:26;100290.97;;;24.22;62.05
34931;BME280;21134;49.646;8.560;2022-08-19T08:11:11;100298.44;;;24.28;62.01
34931;BME280;21134;49.646;8.560;2022-08-19T08:13:39;100299.84;;;24.33;61.57
34931;BME280;21134;49.646;8.560;2022-08-19T08:16:06;100304.34;;;24.31;61.67
34931;BME280;21134;49.646;8.560;2022-08-19T08:18:33;100290.63;;;24.42;61.29
34931;BME280;21134;49.646;8.560;2022-08-19T08:21:07;100294.91;;;24.43;60.29
34931;BME280;21134;49.646;8.560;2022-08-19T08:23:34;100294.53;;;24.49;61.08
34931;BME280;21134;49.646;8.560;2022-08-19T08:26:01;100290.06;;;24.51;61.09
34931;BME280;21134;49.646;8.560;2022-08-19T08:28:29;100287.88;;;24.58;60.46
34931;BME280;21134;49.646;8.560;2022-08-19T08:30:58;100289.63;;;24.72;59.77
34931;BME280;21134;49.646;8.560;2022-08-19T08:33:28;100291.72;;;24.52;60.64
34931;BME280;21134;49.646;8.560;2022-08-19T08:35:55;100285.81;;;24.63;60.61
34931;BME280;21134;49.646;8.560;2022-08-19T08:38:22;100290.31;;;24.61;60.12
34931;BME280;21134;49.646;8.560;2022-08-19T08:40:50;100291.78;;;24.65;59.84
34931;BME280;21134;49.646;8.560;2022-08-19T08:43:23;100298.75;;;24.79;58.44
34931;BME280;21134;49.646;8.560;2022-08-19T08:45:55;100291.66;;;24.81;58.31
34931;BME280;21134;49.646;8.560;2022-08-19T08:48:30;100298.88;;;24.63;59.00
34931;BME280;21134;49.646;8.560;2022-08-19T08:51:03;100299.97;;;24.88;58.20
34931;BME280;21134;49.646;8.560;2022-08-19T08:53:31;100294.34;;;24.94;58.96
34931;BME280;21134;49.646;8.560;2022-08-19T08:56:01;100297.06;;;24.92;58.30
34931;BME280;21134;49.646;8.560;2022-08-19T08:58:31;100297.97;;;25.05;58.79
34931;BME280;21134;49.646;8.560;2022-08-19T09:01:09;100301.09;;;25.11;57.77
34931;BME280;21134;49.646;8.560;2022-08-19T09:03:38;100301.22;;;25.09;58.58
34931;BME280;21134;49.646;8.560;2022-08-19T09:06:07;100304.75;;;25.22;57.82
34931;BME280;21134;49.646;8.560;2022-08-19T09:08:43;100311.19;;;25.31;57.99
34931;BME280;21134;49.646;8.560;2022-08-19T09:11:15;100301.00;;;25.39;57.63
34931;BME280;21134;49.646;8.560;2022-08-19T09:13:53;100302.28;;;25.34;57.39
34931;BME280;21134;49.646;8.560;2022-08-19T09:16:27;100295.81;;;25.65;55.64
34931;BME280;21134;49.646;8.560;2022-08-19T09:18:58;100293.31;;;25.63;55.83
34931;BME280;21134;49.646;8.560;2022-08-19T09:21:27;100290.97;;;25.86;55.51
34931;BME280;21134;49.646;8.560;2022-08-19T09:23:54;100292.31;;;26.04;54.39
34931;BME280;21134;49.646;8.560;2022-08-19T09:26:22;100293.13;;;26.30;53.46
34931;BME280;21134;49.646;8.560;2022-08-19T09:28:51;100293.00;;;26.32;53.28
34931;BME280;21134;49.646;8.560;2022-08-19T09:31:21;100285.88;;;26.34;53.53
34931;BME280;21134;49.646;8.560;2022-08-19T09:33:48;100293.56;;;26.24;54.30
34931;BME280;21134;49.646;8.560;2022-08-19T09:36:19;100294.38;;;26.50;53.01
34931;BME280;21134;49.646;8.560;2022-08-19T09:38:47;100294.75;;;26.70;52.09
34931;BME280;21134;49.646;8.560;2022-08-19T09:41:18;100286.44;;;26.76;50.22
34931;BME280;21134;49.646;8.560;2022-08-19T09:43:48;100294.72;;;26.82;50.25
34931;BME280;21134;49.646;8.560;2022-08-19T09:46:18;100288.31;;;26.74;50.21
34931;BME280;21134;49.646;8.560;2022-08-19T09:48:46;100289.19;;;26.74;50.45
34931;BME280;21134;49.646;8.560;2022-08-19T09:51:17;100283.88;;;26.87;49.83
34931;BME280;21134;49.646;8.560;2022-08-19T09:53:45;100284.63;;;26.52;50.93
34931;BME280;21134;49.646;8.560;2022-08-19T09:56:13;100290.72;;;26.27;51.80
34931;BME280;21134;49.646;8.560;2022-08-19T09:58:40;100290.81;;;26.26;52.79
34931;BME280;21134;49.646;8.560;2022-08-19T10:01:09;100288.78;;;26.67;51.17
34931;BME280;21134;49.646;8.560;2022-08-19T10:03:41;100281.44;;;26.60;50.18
34931;BME280;21134;49.646;8.560;2022-08-19T10:06:07;100283.41;;;26.69;50.36
34931;BME280;21134;49.646;8.560;2022-08-19T10:08:36;100283.63;;;26.66;50.95
34931;BME280;21134;49.646;8.560;2022-08-19T10:11:05;100281.84;;;26.66;51.58
34931;BME280;21134;49.646;8.560;2022-08-19T10:13:32;100292.50;;;26.39;52.80
34931;BME280;21134;49.646;8.560;2022-08-19T10:16:05;100290.72;;;26.40;52.94
34931;BME280;21134;49.646;8.560;2022-08-19T10:18:33;100291.13;;;26.47;53.18
34931;BME280;21134;49.646;8.560;2022-08-19T10:21:06;100288.97;;;26.77;52.55
34931;BME280;21134;49.646;8.560;2022-08-19T10:23:38;100288.13;;;27.01;50.99
34931;BME280;21134;49.646;8.560;2022-08-19T10:26:06;100283.78;;;27.12;50.97
34931;BME280;21134;49.646;8.560;2022-08-19T10:28:33;100280.69;;;27.43;49.06
34931;BME280;21134;49.646;8.560;2022-08-19T10:31:04;100269.56;;;27.39;49.57
34931;BME280;21134;49.646;8.560;2022-08-19T10:33:32;100289.94;;;27.24;50.34
34931;BME280;21134;49.646;8.560;2022-08-19T10:35:59;100291.97;;;27.08;49.81
34931;BME280;21134;49.646;8.560;2022-08-19T10:38:26;100284.44;;;27.27;49.29
34931;BME280;21134;49.646;8.560;2022-08-19T10:40:55;100278.47;;;27.61;49.19
34931;BME280;21134;49.646;8.560;2022-08-19T10:43:22;100276.44;;;27.64;48.39
34931;BME280;21134;49.646;8.560;2022-08-19T10:45:52;100277.50;;;27.62;48.88
34931;BME280;21134;49.646;8.560;2022-08-19T10:48:20;100271.66;;;27.69;48.56
34931;BME280;21134;49.646;8.560;2022-08-19T10:50:46;100274.19;;;27.71;48.03
34931;BME280;21134;49.646;8.560;2022-08-19T10:53:30;100268.47;;;27.88;47.34
34931;BME280;21134;49.646;8.560;2022-08-19T10:55:58;100256.66;;;27.83;47.28
34931;BME280;21134;49.646;8.560;2022-08-19T10:58:42;100258.31;;;28.28;47.71
34931;BME280;21134;49.646;8.560;2022-08-19T11:01:10;100259.28;;;28.16;46.55
34931;BME280;21134;49.646;8.560;2022-08-19T11:03:37;100260.13;;;28.28;46.65
34931;BME280;21134;49.646;8.560;2022-08-19T11:06:07;100254.97;;;28.26;46.17
34931;BME280;21134;49.646;8.560;2022-08-19T11:08:35;100258.56;;;28.25;46.08
34931;BME280;21134;49.646;8.560;2022-08-19T11:11:06;100257.75;;;28.25;45.20
34931;BME280;21134;49.646;8.560;2022-08-19T11:13:37;100243.38;;;28.29;45.50
34931;BME280;21134;49.646;8.560;2022-08-19T11:16:07;100244.59;;;28.25;44.98
34931;BME280;21134;49.646;8.560;2022-08-19T11:18:36;100252.00;;;28.42;44.96
34931;BME280;21134;49.646;8.560;2022-08-19T11:21:08;100245.31;;;28.49;44.94
34931;BME280;21134;49.646;8.560;2022-08-19T11:23:35;100235.97;;;28.23;44.86
34931;BME280;21134;49.646;8.560;2022-08-19T11:26:03;100226.84;;;28.38;44.64
34931;BME280;21134;49.646;8.560;2022-08-19T11:28:30;100224.34;;;28.59;44.45
34931;BME280;21134;49.646;8.560;2022-08-19T11:30:57;100220.09;;;28.68;43.86
34931;BME280;21134;49.646;8.560;2022-08-19T11:33:23;100221.06;;;28.78;43.95
34931;BME280;21134;49.646;8.560;2022-08-19T11:35:51;100213.22;;;28.88;44.40
34931;BME280;21134;49.646;8.560;2022-08-19T11:38:18;100215.31;;;28.94;43.70
34931;BME280;21134;49.646;8.560;2022-08-19T11:40:44;100216.09;;;28.85;44.33
34931;BME280;21134;49.646;8.560;2022-08-19T11:43:12;100210.25;;;29.13;43.25
34931;BME280;21134;49.646;8.560;2022-08-19T11:45:39;100210.59;;;29.20;42.95
34931;BME280;21134;49.646;8.560;2022-08-19T11:48:06;100212.75;;;29.15;43.43
34931;BME280;21134;49.646;8.560;2022-08-19T11:50:33;100200.81;;;29.11;43.69
34931;BME280;21134;49.646;8.560;2022-08-19T11:53:00;100192.91;;;29.00;42.09
34931;BME280;21134;49.646;8.560;2022-08-19T11:55:27;100201.75;;;29.10;42.46
34931;BME280;21134;49.646;8.560;2022-08-19T11:57:54;100213.66;;;29.25;42.13
34931;BME280;21134;49.646;8.560;2022-08-19T12:00:22;100218.09;;;29.04;40.22
34931;BME280;21134;49.646;8.560;2022-08-19T12:02:50;100211.22;;;29.12;39.23
34931;BME280;21134;49.646;8.560;2022-08-19T12:05:17;100207.41;;;29.05;41.11
34931;BME280;21134;49.646;8.560;2022-08-19T12:07:43;100220.00;;;29.23;40.69
34931;BME280;21134;49.646;8.560;2022-08-19T12:10:11;100217.72;;;29.29;40.14
34931;BME280;21134;49.646;8.560;2022-08-19T12:12:37;100209.88;;;29.18;40.92
34931;BME280;21134;49.646;8.560;2022-08-19T12:15:08;100214.53;;;29.35;40.09
34931;BME280;21134;49.646;8.560;2022-08-19T12:17:37;100217.06;;;29.37;39.57
34931;BME280;21134;49.646;8.560;2022-08-19T12:20:06;100207.66;;;29.44;39.63
34931;BME280;21134;49.646;8.560;2022-08-19T12:22:34;100202.13;;;29.47;40.18
34931;BME280;21134;49.646;8.560;2022-08-19T12:25:01;100207.16;;;29.50;39.74
34931;BME280;21134;49.646;8.560;2022-08-19T12:27:27;100202.91;;;29.59;39.55
34931;BME280;21134;49.646;8.560;2022-08-19T12:29:54;100215.34;;;29.68;39.74
34931;BME280;21134;49.646;8.560;2022-08-19T12:32:20;100214.78;;;29.64;39.55
34931;BME280;21134;49.646;8.560;2022-08-19T12:34:48;100207.44;;;29.26;40.62
34931;BME280;21134;49.646;8.560;2022-08-19T12:37:15;100210.94;;;29.15;40.74
34931;BME280;21134;49.646;8.560;2022-08-19T12:39:42;100210.66;;;28.97;41.19
34931;BME280;21134;49.646;8.560;2022-08-19T12:42:09;100215.63;;;28.80;41.55
34931;BME280;21134;49.646;8.560;2022-08-19T12:44:37;100210.50;;;28.78;41.62
34931;BME280;21134;49.646;8.560;2022-08-19T12:47:05;100213.53;;;29.27;40.76
34931;BME280;21134;49.646;8.560;2022-08-19T12:49:33;100207.72;;;29.54;39.63
34931;BME280;21134;49.646;8.560;2022-08-19T12:52:03;100202.16;;;29.68;39.97
34931;BME280;21134;49.646;8.560;2022-08-19T12:54:30;100198.47;;;29.80;38.62
34931;BME280;21134;49.646;8.560;2022-08-19T12:56:57;100205.09;;;30.15;39.79